Pandamatenga, Botswana

5:52 PM CAT on November 23, 2014 (GMT +0200)
Victoria Falls | Change Station
CLOSE
Current Station
Airport
Location: Victoria Falls,
Elevation: 3484 ft
Nearby Weather Stations

Elev 3484 ft 18.10 °S, 25.84 °E | Updated 52 minutes ago

Clear
Clear
93 °F
Feels Like 93 °F
N
6
Wind Variable Wind from NW

Today
High -- | Low -- °F
--% Chance of Precip.
Yesterday
High -- | Low -- °F
Precip. -- in
5:31 AM 6:36 PM
New Moon, 2% visible
Pressure 29.95 in
Visibility -9999.0 miles
Clouds
Dew Point 50 °F
Humidity 23%
Rainfall 0.00 in
Snow Depth Not available.
UV Not available.
Pollen Not available.
Air Quality Not available.
Flu Activity Not available.
METAR FVFA 231500Z 31005KT 250V050 CAVOK 34/10 Q1014 NOSIG

More Conditions Fewer Conditions

Pressure 29.95 in
Visibility -9999.0 miles
Clouds
Dew Point 50 °F
Humidity 23%
Rainfall 0.00 in
Snow Depth Not available.
UV Not available.
Pollen Not available.
Air Quality Not available.
Flu Activity Not available.
METAR FVFA 231500Z 31005KT 250V050 CAVOK 34/10 Q1014 NOSIG

More Conditions Fewer Conditions

10-Day Weather Forecast

Almanac

Astronomy

Nov. 23, 2014 Rise Set
Actual Time
Civil Twilight
Nautical Twilight
Astronomical Twilight
Moon
Length of Visible Light
Length of Day
Tomorrow will be .
, % of the Moon is Illuminated

Today's Extremes

Country Highs Country Lows

Community

WunderPhotos

Upload Photos

1,773,082 photos uploaded!

WunderBlogs® & News

Nearby

Air Quality

  Air Quality AQ Index Pollutant
Not available.

Snow Depth

Station Depth Elevation

Earthquake Activity

City Distance Mag. Time & Date
Minimum magnitude displayed is 2.5.

Coastal Water Temperatures

Place Temperature

Nearby Weather Stations